Time;durP1;ratioP1;P1;durP2;ratioP2;P2;SDS_P1;SDS_P2;PMS_P1;PMS_P2;Temp;Humidity;BMP_temperature;BMP_pressure;BME280_temperature;BME280_humidity;BME280_pressure;Samples;Min_cycle;Max_cycle;Signal;HPM_P1;HPM_P2
2022/01/24 00:02:26;;;;;;;6.70;6.00;;;;;;;1.50;100.00;101947.19;5038352;28;20196;-48
2022/01/24 00:04:52;;;;;;;6.37;5.73;;;;;;;1.57;100.00;101938.19;5039206;28;20195;-47
2022/01/24 00:07:20;;;;;;;7.97;5.80;;;;;;;1.60;100.00;101939.25;5036162;28;20210;-47
2022/01/24 00:09:46;;;;;;;6.47;5.70;;;;;;;1.65;100.00;101934.38;5041870;28;20274;-47
2022/01/24 00:12:42;;;;;;;6.23;5.63;;;;;;;1.61;100.00;101925.69;5038535;28;20198;-44
2022/01/24 00:17:49;;;;;;;7.47;6.47;;;;;;;1.64;100.00;101930.06;5037552;28;20693;-47
2022/01/24 00:28:26;;;;;;;7.30;6.50;;;;;;;1.55;100.00;101919.38;5042688;28;20217;-48
2022/01/24 00:30:52;;;;;;;6.93;6.23;;;;;;;1.50;100.00;101920.00;5042449;28;20195;-46
2022/01/24 00:33:19;;;;;;;7.20;6.37;;;;;;;1.50;100.00;101914.88;5041718;28;20197;-46
2022/01/24 00:35:46;;;;;;;7.43;6.73;;;;;;;1.41;100.00;101916.94;5039207;28;20191;-47
2022/01/24 00:38:11;;;;;;;6.80;6.20;;;;;;;1.37;100.00;101915.00;5037878;28;20248;-45
2022/01/24 00:40:40;;;;;;;7.50;6.70;;;;;;;1.39;100.00;101918.53;5040931;28;20244;-47
2022/01/24 00:54:42;;;;;;;8.17;7.30;;;;;;;1.17;100.00;101909.69;5042499;28;20232;-47
2022/01/24 00:56:50;;;;;;;7.63;6.73;;;;;;;1.12;100.00;101903.47;5045472;28;20601;-46
2022/01/24 00:59:16;;;;;;;7.10;6.37;;;;;;;1.05;100.00;101902.25;5046474;28;20214;-47
2022/01/24 01:01:41;;;;;;;6.57;5.87;;;;;;;0.98;100.00;101906.91;5046648;28;20197;-47
2022/01/24 01:04:07;;;;;;;7.83;6.97;;;;;;;0.91;100.00;101910.75;5047049;28;20592;-47
2022/01/24 01:06:32;;;;;;;7.20;6.30;;;;;;;0.88;100.00;101916.56;5044468;28;20198;-47
2022/01/24 01:19:58;;;;;;;8.70;7.47;;;;;;;0.79;100.00;101910.06;5053182;28;20264;-47
2022/01/24 01:22:23;;;;;;;10.10;7.57;;;;;;;0.77;100.00;101912.53;5045465;28;20197;-47
2022/01/24 01:24:53;;;;;;;8.93;7.67;;;;;;;0.76;100.00;101916.75;5041769;28;20202;-46
2022/01/24 01:27:24;;;;;;;9.83;7.70;;;;;;;0.72;100.00;101921.59;5042789;28;20589;-47
2022/01/24 01:30:05;;;;;;;10.67;8.40;;;;;;;0.70;100.00;101925.69;5044998;28;20374;-47
2022/01/24 01:32:48;;;;;;;;;;;;;;;;;;;;;
2022/01/24 01:40:24;;;;;;;;;;;;;;;;;;;;;
2022/01/24 01:53:31;;;;;;;9.17;8.20;;;;;;;0.70;100.00;101931.69;5004817;28;20253;-46
2022/01/24 01:55:57;;;;;;;9.20;8.30;;;;;;;0.66;100.00;101931.44;5011321;28;20284;-46
2022/01/24 01:58:23;;;;;;;10.57;8.43;;;;;;;0.63;100.00;101932.13;5005449;28;20303;-44
2022/01/24 02:00:53;;;;;;;10.53;8.40;;;;;;;0.65;100.00;101937.31;5004970;28;20422;-44
2022/01/24 02:03:19;;;;;;;9.17;8.23;;;;;;;0.64;100.00;101935.56;5008418;28;20599;-44
2022/01/24 02:05:45;;;;;;;9.27;8.37;;;;;;;0.59;100.00;101938.72;5010856;28;20199;-45
2022/01/24 02:08:11;;;;;;;9.87;8.77;;;;;;;0.54;100.00;101934.13;4999802;28;20212;-46
2022/01/24 02:10:38;;;;;;;10.67;8.83;;;;;;;0.51;100.00;101934.84;5003911;28;20201;-46
2022/01/24 02:13:04;;;;;;;9.10;8.20;;;;;;;0.44;100.00;101938.72;5007689;28;20367;-46
2022/01/24 02:18:18;;;;;;;10.60;8.90;;;;;;;0.40;100.00;101931.66;5007904;28;20226;-45
2022/01/24 02:25:52;;;;;;;10.57;9.37;;;;;;;0.31;100.00;101923.47;5004169;28;20194;-46
2022/01/24 02:28:20;;;;;;;9.90;8.63;;;;;;;0.26;100.00;101922.34;5002327;28;20227;-46
2022/01/24 02:33:16;;;;;;;10.30;9.17;;;;;;;0.25;100.00;101920.56;4998694;28;20191;-46
2022/01/24 02:35:42;;;;;;;10.30;9.07;;;;;;;0.22;100.00;101922.94;5006669;28;20191;-46
2022/01/24 02:38:22;;;;;;;10.90;9.37;;;;;;;0.20;100.00;101911.75;5005586;28;20649;-45
2022/01/24 02:46:01;;;;;;;10.50;8.73;;;;;;;0.18;100.00;101911.69;5001431;28;20205;-46
2022/01/24 02:49:06;;;;;;;11.17;9.53;;;;;;;0.21;100.00;101906.78;5004205;28;20663;-46
2022/01/24 02:51:46;;;;;;;11.10;9.23;;;;;;;0.20;100.00;101904.13;5004976;28;20203;-46
2022/01/24 02:54:31;;;;;;;12.37;10.23;;;;;;;0.18;100.00;101904.03;4999729;28;20649;-46
2022/01/24 02:56:56;;;;;;;10.43;9.13;;;;;;;0.17;100.00;101897.19;5003158;28;20202;-46
2022/01/24 02:59:22;;;;;;;13.00;9.63;;;;;;;0.16;100.00;101895.44;5001685;28;20196;-46
2022/01/24 03:01:48;;;;;;;10.03;8.80;;;;;;;0.21;100.00;101895.69;5002377;28;20303;-46
2022/01/24 03:04:14;;;;;;;13.23;10.10;;;;;;;0.19;100.00;101893.06;5001263;28;20187;-46
2022/01/24 03:06:39;;;;;;;11.60;9.33;;;;;;;0.17;100.00;101893.75;5004726;28;20212;-46
2022/01/24 03:09:06;;;;;;;10.17;9.13;;;;;;;0.13;100.00;101891.06;5004663;28;20227;-46
2022/01/24 03:11:58;;;;;;;11.47;9.13;;;;;;;0.12;100.00;101886.75;5004590;28;20733;-46
2022/01/24 03:14:26;;;;;;;11.53;9.67;;;;;;;0.13;100.00;101885.06;5011176;28;20615;-45
2022/01/24 03:16:52;;;;;;;11.20;9.93;;;;;;;0.12;100.00;101884.19;5005331;28;20206;-47
2022/01/24 03:19:17;;;;;;;11.07;9.57;;;;;;;0.15;100.00;101889.44;5003058;28;20680;-47
2022/01/24 03:21:43;;;;;;;10.23;9.10;;;;;;;0.12;100.00;101894.38;5003276;28;20253;-47
2022/01/24 03:24:09;;;;;;;10.90;9.70;;;;;;;0.13;100.00;101885.06;5007960;28;20198;-46
2022/01/24 03:26:34;;;;;;;10.90;9.33;;;;;;;0.11;100.00;101884.97;5004058;28;20194;-47
2022/01/24 03:29:00;;;;;;;10.67;9.57;;;;;;;0.11;100.00;101890.06;4995154;28;20196;-46
2022/01/24 03:31:25;;;;;;;11.27;9.43;;;;;;;0.11;100.00;101882.44;5001559;28;20248;-46
2022/01/24 03:33:51;;;;;;;12.43;9.77;;;;;;;0.14;100.00;101889.38;5005945;28;20672;-46
2022/01/24 03:36:16;;;;;;;12.60;10.43;;;;;;;0.15;100.00;101893.69;5003521;28;20542;-46
2022/01/24 03:38:41;;;;;;;11.00;9.80;;;;;;;0.14;100.00;101887.72;5000379;28;20203;-46
2022/01/24 03:41:07;;;;;;;10.37;9.10;;;;;;;0.10;100.00;101887.41;5005022;28;20206;-47
2022/01/24 03:43:33;;;;;;;10.80;9.33;;;;;;;0.06;100.00;101888.03;5004773;28;20221;-46
2022/01/24 03:48:52;;;;;;;11.10;9.90;;;;;;;0.04;100.00;101884.53;4989793;28;20322;-46
2022/01/24 03:51:20;;;;;;;11.40;10.03;;;;;;;-0.01;100.00;101887.66;5001748;28;20250;-46
2022/01/24 03:53:46;;;;;;;11.93;10.03;;;;;;;-0.04;100.00;101900.19;5002640;28;20248;-46
2022/01/24 03:56:12;;;;;;;10.63;9.43;;;;;;;-0.12;100.00;101895.44;5001063;28;21316;-46
2022/01/24 03:58:38;;;;;;;12.77;10.10;;;;;;;-0.19;100.00;101890.00;5007122;28;20281;-45
2022/01/24 04:01:06;;;;;;;11.70;9.50;;;;;;;-0.23;100.00;101895.66;5003661;28;20862;-46
2022/01/24 04:03:33;;;;;;;11.27;10.00;;;;;;;-0.23;100.00;101890.56;5001393;28;20186;-46
2022/01/24 04:05:58;;;;;;;13.10;11.33;;;;;;;-0.20;100.00;101878.06;5003511;28;20548;-46
2022/01/24 04:08:24;;;;;;;14.73;11.60;;;;;;;-0.19;100.00;101894.19;5002539;28;20223;-46
2022/01/24 04:10:53;;;;;;;12.80;11.10;;;;;;;-0.21;100.00;101891.56;5002715;28;20236;-46
2022/01/24 04:13:35;;;;;;;13.30;11.80;;;;;;;-0.27;100.00;101882.66;4998770;28;20184;-46
2022/01/24 04:21:33;;;;;;;14.80;12.30;;;;;;;-0.26;100.00;101882.75;5020835;28;20190;-46
2022/01/24 04:26:30;;;;;;;14.40;12.07;;;;;;;-0.28;100.00;101886.88;5014502;28;20205;-46
2022/01/24 04:28:57;;;;;;;13.43;11.70;;;;;;;-0.26;100.00;101885.28;5009493;28;20718;-47
2022/01/24 04:31:23;;;;;;;17.17;12.97;;;;;;;-0.26;100.00;101879.34;5024661;28;20236;-47
2022/01/24 04:33:48;;;;;;;14.57;11.87;;;;;;;-0.30;100.00;101880.78;5008836;28;20214;-46
2022/01/24 04:36:16;;;;;;;14.93;12.23;;;;;;;-0.31;100.00;101882.47;5018835;28;20626;-47
2022/01/24 04:38:42;;;;;;;17.37;13.20;;;;;;;-0.32;100.00;101883.25;5010665;28;20257;-47
2022/01/24 04:41:16;;;;;;;12.87;11.57;;;;;;;-0.30;100.00;101885.88;5020158;28;20198;-45
2022/01/24 04:56:41;;;;;;;16.60;14.00;;;;;;;-0.41;100.00;101881.81;5024355;28;20193;-45
2022/01/24 04:59:07;;;;;;;13.80;11.97;;;;;;;-0.47;100.00;101888.31;5020630;28;20201;-45
2022/01/24 05:01:33;;;;;;;13.80;11.60;;;;;;;-0.50;100.00;101890.66;5016005;28;20200;-45
2022/01/24 05:03:59;;;;;;;15.90;12.13;;;;;;;-0.54;100.00;101896.31;5022827;28;20209;-45
2022/01/24 05:06:24;;;;;;;12.63;11.27;;;;;;;-0.56;100.00;101891.94;5001765;28;20194;-45
2022/01/24 05:08:50;;;;;;;15.40;12.93;;;;;;;-0.59;100.00;101897.69;5015587;28;20319;-51
2022/01/24 05:11:24;;;;;;;13.23;11.70;;;;;;;-0.64;100.00;101901.63;5012602;28;20570;-45
2022/01/24 05:24:32;;;;;;;12.67;11.37;;;;;;;-0.96;100.00;101903.88;5020419;28;20557;-45
2022/01/24 05:26:57;;;;;;;13.07;11.27;;;;;;;-1.01;100.00;101904.34;5018901;28;20201;-45
2022/01/24 05:29:23;;;;;;;12.60;10.73;;;;;;;-1.10;100.00;101899.56;5020605;28;20554;-45
2022/01/24 05:31:48;;;;;;;11.53;10.00;;;;;;;-1.15;100.00;101906.88;5015871;28;20197;-45
2022/01/24 05:34:14;;;;;;;11.90;9.93;;;;;;;-1.19;100.00;101901.50;5011563;28;20196;-45
2022/01/24 05:36:39;;;;;;;11.50;10.20;;;;;;;-1.26;100.00;101905.31;5009090;28;20218;-45
2022/01/24 05:39:05;;;;;;;11.10;9.90;;;;;;;-1.31;100.00;101893.97;5018129;28;20208;-46
2022/01/24 05:41:31;;;;;;;12.10;10.03;;;;;;;-1.38;100.00;101901.19;5008082;28;20191;-45
2022/01/24 05:43:56;;;;;;;10.67;9.57;;;;;;;-1.41;100.00;101905.19;5016222;28;20575;-45
2022/01/24 05:46:22;;;;;;;10.47;9.17;;;;;;;-1.43;100.00;101904.19;5013731;28;20364;-45
2022/01/24 05:48:47;;;;;;;10.50;9.40;;;;;;;-1.46;100.00;101899.78;5010344;28;20216;-45
2022/01/24 05:51:13;;;;;;;11.67;9.90;;;;;;;-1.51;100.00;101892.66;5010402;28;20195;-46
2022/01/24 05:53:38;;;;;;;11.93;10.27;;;;;;;-1.55;100.00;101896.66;5026048;28;20188;-46
2022/01/24 05:56:04;;;;;;;11.83;10.30;;;;;;;-1.59;100.00;101899.78;5011943;28;20376;-45
2022/01/24 05:58:29;;;;;;;10.87;9.53;;;;;;;-1.61;100.00;101894.59;5017209;28;20212;-45
2022/01/24 06:00:55;;;;;;;11.83;10.23;;;;;;;-1.63;100.00;101906.31;5011856;28;20636;-45
2022/01/24 06:03:21;;;;;;;11.33;10.03;;;;;;;-1.66;100.00;101898.47;5019331;28;20241;-45
2022/01/24 06:05:46;;;;;;;11.73;10.47;;;;;;;-1.68;100.00;101902.56;5020321;28;20188;-45
2022/01/24 06:08:12;;;;;;;14.40;11.40;;;;;;;-1.69;100.00;101898.28;5014204;28;20219;-45
2022/01/24 06:10:38;;;;;;;13.17;10.10;;;;;;;-1.71;100.00;101904.91;5011894;28;20262;-44
2022/01/24 06:13:04;;;;;;;13.10;10.30;;;;;;;-1.75;100.00;101903.81;5013542;28;20270;-46
2022/01/24 06:15:29;;;;;;;12.53;10.50;;;;;;;-1.78;100.00;101898.53;5015425;28;20231;-45
2022/01/24 06:17:55;;;;;;;13.20;10.67;;;;;;;-1.80;100.00;101897.53;5006343;28;20299;-46
2022/01/24 06:20:20;;;;;;;10.97;9.37;;;;;;;-1.83;100.00;101894.81;5000534;28;20567;-46
2022/01/24 06:22:45;;;;;;;10.87;9.77;;;;;;;-1.85;100.00;101901.44;5018372;28;20188;-46
2022/01/24 06:25:13;;;;;;;11.13;9.77;;;;;;;-1.88;100.00;101906.31;5020539;28;20199;-46
2022/01/24 06:27:39;;;;;;;11.43;9.87;;;;;;;-1.90;100.00;101911.28;5011616;28;20196;-46
2022/01/24 06:30:05;;;;;;;12.40;9.63;;;;;;;-1.93;100.00;101910.19;4999502;28;20210;-45
2022/01/24 06:32:31;;;;;;;12.70;10.53;;;;;;;-1.94;100.00;101908.41;5000126;28;21001;-46
2022/01/24 06:34:56;;;;;;;13.93;11.20;;;;;;;-1.95;100.00;101910.09;5000958;28;20291;-46
2022/01/24 06:37:21;;;;;;;12.40;10.73;;;;;;;-1.95;100.00;101914.25;5008244;28;20554;-46
2022/01/24 06:39:47;;;;;;;12.93;10.90;;;;;;;-1.95;100.00;101906.66;5005937;28;20193;-45
2022/01/24 06:42:21;;;;;;;13.83;12.43;;;;;;;-1.94;100.00;101919.47;5011061;28;20204;-46
2022/01/24 06:44:46;;;;;;;15.70;13.17;;;;;;;-1.91;100.00;101914.59;5007127;28;20628;-46
2022/01/24 06:47:11;;;;;;;14.63;12.47;;;;;;;-1.87;100.00;101923.28;5003191;28;20560;-45
2022/01/24 06:49:37;;;;;;;15.33;12.57;;;;;;;-1.83;100.00;101917.66;5005534;28;20192;-45
2022/01/24 06:52:03;;;;;;;14.20;12.37;;;;;;;-1.84;100.00;101916.75;5001871;28;20196;-46
2022/01/24 06:54:29;;;;;;;22.37;15.93;;;;;;;-1.84;100.00;101919.31;5004629;28;20194;-47
2022/01/24 06:56:54;;;;;;;24.73;17.33;;;;;;;-1.88;100.00;101921.53;5003738;28;20212;-47
2022/01/24 06:59:19;;;;;;;23.00;17.60;;;;;;;-1.92;100.00;101924.63;5002876;28;20299;-47
2022/01/24 07:01:45;;;;;;;25.50;17.90;;;;;;;-1.95;100.00;101916.81;5003261;28;20196;-47
2022/01/24 07:04:10;;;;;;;20.53;15.40;;;;;;;-1.98;100.00;101916.63;5001478;28;20660;-47
2022/01/24 07:06:35;;;;;;;20.23;14.57;;;;;;;-2.02;100.00;101913.88;5005873;28;20188;-47
2022/01/24 07:09:03;;;;;;;14.73;11.73;;;;;;;-2.02;100.00;101915.50;5005904;28;20919;-47
2022/01/24 07:11:28;;;;;;;14.37;12.53;;;;;;;-2.04;100.00;101912.88;5015967;28;20670;-47
2022/01/24 07:13:54;;;;;;;13.93;11.53;;;;;;;-2.04;100.00;101906.94;5015776;28;20317;-45
2022/01/24 07:16:19;;;;;;;12.10;10.67;;;;;;;-2.03;100.00;101909.56;5017959;28;20662;-46
2022/01/24 07:19:03;;;;;;;13.43;10.60;;;;;;;-2.00;100.00;101913.97;5015813;28;20203;-47
2022/01/24 07:21:29;;;;;;;13.60;10.90;;;;;;;-2.00;100.00;101912.31;5005133;28;20558;-47
2022/01/24 07:23:54;;;;;;;16.10;12.43;;;;;;;-1.95;100.00;101914.25;5011164;28;20221;-46
2022/01/24 07:26:20;;;;;;;16.50;13.47;;;;;;;-1.88;100.00;101924.06;5011954;28;20198;-47
2022/01/24 07:28:45;;;;;;;15.50;13.70;;;;;;;-1.81;100.00;101921.16;5015770;28;20203;-46
2022/01/24 07:31:11;;;;;;;16.13;13.87;;;;;;;-1.76;100.00;101919.81;5016281;28;20205;-46
2022/01/24 07:33:37;;;;;;;17.50;13.90;;;;;;;-1.68;100.00;101920.34;5012062;28;20605;-46
2022/01/24 07:36:03;;;;;;;16.13;14.00;;;;;;;-1.59;100.00;101922.63;5012905;28;20280;-46
2022/01/24 07:38:29;;;;;;;20.40;16.73;;;;;;;-1.47;100.00;101925.09;4999040;28;20205;-47
2022/01/24 07:40:55;;;;;;;18.13;14.60;;;;;;;-1.35;100.00;101931.00;5011052;28;20189;-46
2022/01/24 07:43:21;;;;;;;17.73;14.77;;;;;;;-1.25;100.00;101923.19;5004493;28;20561;-46
2022/01/24 07:45:48;;;;;;;20.57;16.30;;;;;;;-1.12;100.00;101918.91;5014950;28;20189;-47
2022/01/24 07:48:15;;;;;;;20.00;16.60;;;;;;;-0.99;100.00;101918.03;5011732;28;20220;-47
2022/01/24 07:50:43;;;;;;;20.93;16.20;;;;;;;-0.87;100.00;101918.81;5007016;28;20250;-46
2022/01/24 07:53:10;;;;;;;16.27;14.47;;;;;;;-0.77;100.00;101930.47;5011371;28;20234;-46
2022/01/24 07:55:36;;;;;;;16.77;14.07;;;;;;;-0.67;100.00;101927.72;5019232;28;20190;-47
2022/01/24 07:58:02;;;;;;;21.07;16.93;;;;;;;-0.56;100.00;101928.41;5006533;28;20200;-47
2022/01/24 08:00:27;;;;;;;18.83;15.50;;;;;;;-0.46;100.00;101932.41;5006960;28;20192;-46
2022/01/24 08:02:53;;;;;;;17.20;13.47;;;;;;;-0.34;100.00;101938.25;5005343;28;20568;-47
2022/01/24 08:05:18;;;;;;;19.17;15.87;;;;;;;-0.23;100.00;101936.38;5002552;28;20177;-47
2022/01/24 08:07:44;;;;;;;19.83;15.67;;;;;;;-0.12;100.00;101942.13;5010277;28;20208;-47
2022/01/24 08:10:11;;;;;;;14.90;13.27;;;;;;;-0.03;100.00;101944.38;5013626;28;20676;-44
2022/01/24 08:12:38;;;;;;;16.50;13.27;;;;;;;0.04;100.00;101936.31;5004261;28;20220;-47
2022/01/24 08:15:05;;;;;;;14.37;12.90;;;;;;;0.15;100.00;101942.03;5002568;28;20247;-47
2022/01/24 08:17:31;;;;;;;14.33;12.73;;;;;;;0.22;100.00;101948.38;5007030;28;20618;-47
2022/01/24 08:19:56;;;;;;;22.53;20.13;;;;;;;0.28;100.00;101943.69;5005220;28;20184;-46
2022/01/24 08:22:23;;;;;;;17.83;15.83;;;;;;;0.32;100.00;101932.00;5007389;28;20192;-46
2022/01/24 08:24:50;;;;;;;16.17;14.47;;;;;;;0.35;100.00;101945.78;5003925;28;20212;-46
2022/01/24 08:27:18;;;;;;;16.33;13.97;;;;;;;0.40;100.00;101930.78;5009125;28;20239;-47
2022/01/24 08:29:45;;;;;;;19.63;14.83;;;;;;;0.42;100.00;101939.38;5003724;28;20193;-46
2022/01/24 08:32:11;;;;;;;15.50;13.47;;;;;;;0.47;100.00;101932.91;4998973;28;20525;-46
2022/01/24 08:34:37;;;;;;;18.13;14.27;;;;;;;0.54;100.00;101937.56;5002449;28;20217;-46
2022/01/24 08:37:03;;;;;;;22.17;19.80;;;;;;;0.59;100.00;101938.72;5006375;28;20218;-46
2022/01/24 08:39:29;;;;;;;15.90;13.63;;;;;;;0.68;100.00;101935.81;5001441;28;20184;-46
2022/01/24 08:46:49;;;;;;;16.73;14.90;;;;;;;0.89;100.00;101948.91;5011195;28;20218;-47
2022/01/24 08:49:15;;;;;;;14.77;13.17;;;;;;;0.97;100.00;101943.41;5004527;28;20641;-46
2022/01/24 08:51:41;;;;;;;18.50;14.40;;;;;;;1.04;100.00;101936.19;5001713;28;20202;-46
2022/01/24 08:54:07;;;;;;;17.00;14.90;;;;;;;1.11;100.00;101941.63;5003052;28;20203;-46
2022/01/24 08:56:34;;;;;;;19.43;16.73;;;;;;;1.18;100.00;101941.19;5004322;28;20217;-46
2022/01/24 08:59:00;;;;;;;18.93;16.90;;;;;;;1.26;100.00;101937.38;5000875;28;20267;-46
2022/01/24 09:01:26;;;;;;;18.57;16.70;;;;;;;1.34;100.00;101927.59;4998857;28;20291;-46
2022/01/24 09:03:51;;;;;;;19.23;16.07;;;;;;;1.43;100.00;101930.69;4998083;28;20188;-46
2022/01/24 09:06:18;;;;;;;19.67;17.57;;;;;;;1.48;100.00;101934.34;4993618;28;20192;-46
2022/01/24 09:08:44;;;;;;;19.60;15.93;;;;;;;1.55;100.00;101929.56;5004662;28;20220;-46
2022/01/24 09:11:10;;;;;;;19.57;15.80;;;;;;;1.64;100.00;101942.81;5012130;28;20663;-46
2022/01/24 09:13:36;;;;;;;17.77;14.27;;;;;;;1.70;100.00;101934.63;5010077;28;20184;-46
2022/01/24 09:16:02;;;;;;;17.07;15.10;;;;;;;1.79;100.00;101940.25;5003290;28;20200;-48
2022/01/24 09:18:29;;;;;;;16.80;14.80;;;;;;;1.85;100.00;101938.00;5003896;28;20216;-47
2022/01/24 09:20:59;;;;;;;15.13;13.53;;;;;;;1.92;100.00;101936.66;5001772;28;20193;-47
2022/01/24 09:23:25;;;;;;;14.47;13.07;;;;;;;1.99;100.00;101933.63;5004895;28;20218;-47
2022/01/24 09:25:51;;;;;;;16.03;13.67;;;;;;;2.07;100.00;101934.03;5002673;28;20196;-48
2022/01/24 09:28:19;;;;;;;16.43;14.37;;;;;;;2.15;100.00;101931.88;5000594;28;20208;-47
2022/01/24 09:30:45;;;;;;;17.97;16.13;;;;;;;2.21;100.00;101927.97;5002835;28;20250;-48
2022/01/24 09:33:12;;;;;;;16.40;13.87;;;;;;;2.31;100.00;101931.88;5003970;28;20196;-48
2022/01/24 09:35:39;;;;;;;15.40;13.80;;;;;;;2.39;100.00;101932.28;5003635;28;20192;-47
2022/01/24 09:38:05;;;;;;;17.30;14.80;;;;;;;2.49;100.00;101939.59;5004426;28;20219;-46
2022/01/24 09:40:32;;;;;;;14.27;12.77;;;;;;;2.54;100.00;101935.59;5004475;28;20189;-47
2022/01/24 09:42:58;;;;;;;17.63;13.57;;;;;;;2.63;100.00;101935.19;5003961;28;20188;-47
2022/01/24 09:45:27;;;;;;;14.93;12.47;;;;;;;2.67;100.00;101929.41;5005691;28;20189;-46
2022/01/24 09:47:55;;;;;;;14.77;13.00;;;;;;;2.74;100.00;101930.59;5004434;28;20247;-46
2022/01/24 09:50:22;;;;;;;14.33;12.70;;;;;;;2.83;100.00;101930.19;5002764;28;20212;-46
2022/01/24 09:52:49;;;;;;;15.77;14.07;;;;;;;2.93;100.00;101928.94;5007958;28;20908;-46
2022/01/24 09:55:18;;;;;;;15.93;14.03;;;;;;;3.02;100.00;101925.16;5004871;28;20588;-46
2022/01/24 09:57:47;;;;;;;13.57;12.13;;;;;;;3.11;100.00;101934.97;5000835;28;20205;-46
2022/01/24 10:00:15;;;;;;;15.20;12.97;;;;;;;3.17;100.00;101929.25;4999211;28;20661;-46
2022/01/24 10:02:43;;;;;;;13.40;11.83;;;;;;;3.20;100.00;101929.41;5002983;28;20200;-46
2022/01/24 10:05:18;;;;;;;12.03;10.53;;;;;;;3.26;100.00;101924.56;5008257;28;20200;-46
2022/01/24 10:07:52;;;;;;;12.33;11.13;;;;;;;3.36;100.00;101928.44;5009668;28;20250;-46
2022/01/24 10:10:30;;;;;;;12.80;11.60;;;;;;;3.41;100.00;101927.00;4999194;28;20675;-46
2022/01/24 10:18:08;;;;;;;11.67;10.47;;;;;;;3.61;100.00;101929.59;5001086;28;20250;-47
2022/01/24 10:20:41;;;;;;;12.50;11.30;;;;;;;3.65;100.00;101917.00;4999580;28;20185;-46
2022/01/24 10:23:26;;;;;;;11.87;10.67;;;;;;;3.69;100.00;101928.25;5003913;28;20383;-47
2022/01/24 10:25:59;;;;;;;12.00;10.80;;;;;;;3.78;100.00;101928.66;4998543;28;20590;-46
2022/01/24 10:28:26;;;;;;;12.40;11.07;;;;;;;3.82;100.00;101909.22;5002776;28;20618;-46
2022/01/24 10:31:04;;;;;;;11.80;10.70;;;;;;;3.89;100.00;101908.66;5001095;28;20210;-46
2022/01/24 10:33:29;;;;;;;11.60;10.40;;;;;;;3.97;100.00;101909.00;4996465;28;20572;-46
2022/01/24 10:35:55;;;;;;;12.57;10.80;;;;;;;4.00;100.00;101916.84;4997690;28;20250;-46
2022/01/24 10:38:41;;;;;;;12.70;11.40;;;;;;;4.06;100.00;101909.44;5002812;28;20937;-46
2022/01/24 10:41:23;;;;;;;11.57;10.47;;;;;;;4.11;99.97;101909.63;5003209;28;20230;-46
2022/01/24 10:43:50;;;;;;;13.60;10.73;;;;;;;4.19;100.00;101908.28;5003216;28;20567;-46
2022/01/24 10:46:24;;;;;;;10.53;9.50;;;;;;;4.25;100.00;101905.97;5017875;28;20188;-46
2022/01/24 10:49:03;;;;;;;11.10;10.07;;;;;;;4.32;99.52;101904.56;5007809;28;20459;-46
2022/01/24 10:51:36;;;;;;;11.37;10.27;;;;;;;4.35;98.52;101901.25;5011371;28;20188;-46
2022/01/24 10:54:02;;;;;;;10.67;9.60;;;;;;;4.38;99.36;101901.38;5003208;28;20204;-46
2022/01/24 10:56:38;;;;;;;10.70;9.60;;;;;;;4.45;99.57;101900.84;5006220;28;20657;-46
2022/01/24 10:59:06;;;;;;;11.37;10.20;;;;;;;4.51;98.85;101897.66;5003948;28;20250;-48
2022/01/24 11:01:33;;;;;;;10.57;9.57;;;;;;;4.60;98.64;101887.78;5007361;28;20205;-48
2022/01/24 11:04:07;;;;;;;10.50;9.50;;;;;;;4.57;97.99;101898.78;5007979;28;20199;-48
2022/01/24 11:06:38;;;;;;;10.53;9.53;;;;;;;4.57;97.39;101888.53;5001896;28;20222;-48
2022/01/24 11:09:28;;;;;;;11.03;10.00;;;;;;;4.62;97.36;101890.38;5006037;28;20241;-48
2022/01/24 11:12:11;;;;;;;10.93;9.83;;;;;;;4.61;97.53;101892.09;5002975;28;20247;-48
2022/01/24 11:14:39;;;;;;;11.77;10.47;;;;;;;4.64;97.36;101883.63;5002337;28;20199;-45
2022/01/24 11:17:07;;;;;;;11.23;10.13;;;;;;;4.64;96.67;101892.22;5005864;28;20577;-52
2022/01/24 11:22:24;;;;;;;11.47;10.37;;;;;;;4.73;96.16;101889.16;5001841;28;20196;-47
2022/01/24 11:24:58;;;;;;;12.43;10.43;;;;;;;4.77;97.29;101879.91;5000505;28;20192;-47
2022/01/24 11:27:25;;;;;;;10.17;9.00;;;;;;;4.87;96.98;101882.91;5003619;28;20208;-48
2022/01/24 11:29:54;;;;;;;9.77;8.83;;;;;;;4.87;95.88;101872.63;5007797;28;20265;-48
2022/01/24 11:32:22;;;;;;;10.73;9.67;;;;;;;4.90;95.59;101884.69;5001234;28;20874;-47
2022/01/24 11:34:52;;;;;;;10.60;9.60;;;;;;;4.94;94.89;101880.56;5003498;28;20188;-47
2022/01/24 11:37:38;;;;;;;12.00;10.80;;;;;;;5.01;95.89;101885.13;5010091;28;20749;-45
2022/01/24 11:40:05;;;;;;;10.57;9.53;;;;;;;5.08;96.01;101883.69;5002182;28;20200;-46
2022/01/24 11:42:34;;;;;;;11.10;10.00;;;;;;;5.19;95.58;101877.28;5002552;28;20595;-47
2022/01/24 11:45:05;;;;;;;10.37;9.37;;;;;;;5.23;94.73;101879.16;5002149;28;20649;-45
2022/01/24 11:47:34;;;;;;;10.43;9.33;;;;;;;5.29;95.17;101883.66;5001427;28;20224;-45
2022/01/24 11:50:27;;;;;;;11.77;10.47;;;;;;;5.31;94.60;101880.31;5005085;28;20215;-46
2022/01/24 11:52:55;;;;;;;9.80;8.80;;;;;;;5.30;93.55;101870.84;5000591;28;20664;-47
2022/01/24 11:55:37;;;;;;;9.40;8.53;;;;;;;5.33;93.41;101880.38;5001044;28;20188;-47
2022/01/24 11:58:07;;;;;;;10.40;9.37;;;;;;;5.42;94.08;101869.59;5001105;28;20553;-48
2022/01/24 12:00:44;;;;;;;10.83;9.83;;;;;;;5.51;94.68;101867.34;5001832;28;20225;-48
2022/01/24 12:03:26;;;;;;;9.73;8.73;;;;;;;5.59;93.76;101854.81;5002219;28;20372;-48
2022/01/24 12:05:56;;;;;;;8.57;7.67;;;;;;;5.61;93.17;101856.59;5000775;28;20192;-47
2022/01/24 12:08:59;;;;;;;8.53;7.73;;;;;;;5.67;92.57;101853.41;5005771;28;20667;-47
2022/01/24 12:11:31;;;;;;;9.17;8.23;;;;;;;5.72;92.81;101859.56;5010064;28;20265;-47
2022/01/24 12:14:02;;;;;;;8.67;7.77;;;;;;;5.77;92.09;101852.03;5011454;28;20570;-47
2022/01/24 12:16:39;;;;;;;9.07;7.90;;;;;;;5.85;92.63;101848.03;5002323;28;20198;-47
2022/01/24 12:19:05;;;;;;;8.40;7.60;;;;;;;5.87;92.12;101848.97;5000606;28;20203;-47
2022/01/24 12:21:36;;;;;;;8.23;7.50;;;;;;;5.89;92.30;101844.78;5017064;28;20761;-47
2022/01/24 12:24:10;;;;;;;8.83;7.93;;;;;;;5.93;92.04;101840.63;4997562;28;20250;-47
2022/01/24 12:27:05;;;;;;;10.43;9.03;;;;;;;6.01;93.01;101831.50;4999367;28;20195;-47
2022/01/24 12:29:31;;;;;;;10.03;9.03;;;;;;;6.03;92.65;101837.56;5000975;28;20208;-47
2022/01/24 12:31:59;;;;;;;9.30;7.83;;;;;;;6.06;92.09;101841.94;5002610;28;20189;-47
2022/01/24 12:34:28;;;;;;;8.33;7.53;;;;;;;6.06;91.40;101845.38;5002876;28;20194;-48
2022/01/24 12:37:04;;;;;;;7.73;7.00;;;;;;;6.13;92.23;101835.28;4999946;28;20236;-48
2022/01/24 12:39:33;;;;;;;7.43;6.83;;;;;;;6.27;91.44;101835.78;4998134;28;20207;-47
2022/01/24 12:42:11;;;;;;;8.00;7.00;;;;;;;6.27;90.66;101823.81;5003409;28;20205;-45
2022/01/24 12:47:04;;;;;;;7.90;7.10;;;;;;;6.34;90.75;101820.63;5012946;28;20595;-47
2022/01/24 12:49:30;;;;;;;8.27;7.47;;;;;;;6.36;90.68;101815.50;5019497;28;20193;-47
2022/01/24 12:52:07;;;;;;;8.53;7.73;;;;;;;6.43;90.97;101814.91;5015856;28;20251;-47
2022/01/24 12:54:35;;;;;;;10.73;9.63;;;;;;;6.46;90.56;101825.28;5013555;28;20673;-47
2022/01/24 12:57:16;;;;;;;9.20;8.30;;;;;;;6.41;89.89;101826.81;5003930;28;20225;-46
2022/01/24 12:59:53;;;;;;;11.70;10.50;;;;;;;6.47;90.92;101816.75;5005220;28;20227;-47
2022/01/24 13:02:27;;;;;;;10.47;9.47;;;;;;;6.43;90.93;101819.19;5003354;28;20193;-47
2022/01/24 13:05:00;;;;;;;11.37;9.80;;;;;;;6.41;91.56;101826.81;5006444;28;20197;-46
2022/01/24 13:07:26;;;;;;;11.40;10.27;;;;;;;6.37;91.98;101822.41;5003355;28;20225;-46
2022/01/24 13:09:51;;;;;;;10.57;9.47;;;;;;;6.35;91.82;101806.06;5006607;28;20200;-46
2022/01/24 13:12:21;;;;;;;12.00;10.90;;;;;;;6.42;92.67;101820.00;5008292;28;20256;-47
2022/01/24 13:14:53;;;;;;;10.27;9.27;;;;;;;6.44;92.76;101813.19;5006568;28;20213;-47
2022/01/24 13:23:03;;;;;;;10.67;9.57;;;;;;;6.40;91.95;101812.22;5006153;28;20208;-48
2022/01/24 13:25:32;;;;;;;10.63;9.73;;;;;;;6.40;92.09;101804.50;5005314;28;20191;-48